createdAt,value
2022-10-07T00:00:43.293Z,13.29
2022-10-07T00:03:10.714Z,13.26
2022-10-07T00:05:37.550Z,13.24
2022-10-07T00:08:05.070Z,13.22
2022-10-07T00:10:31.909Z,13.19
2022-10-07T00:13:01.419Z,13.16
2022-10-07T00:15:28.104Z,13.15
2022-10-07T00:17:54.804Z,13.12
2022-10-07T00:20:21.579Z,13.10
2022-10-07T00:22:48.241Z,13.09
2022-10-07T00:25:15.013Z,13.07
2022-10-07T00:27:41.831Z,13.06
2022-10-07T00:30:09.452Z,13.05
2022-10-07T00:32:36.100Z,13.06
2022-10-07T00:35:02.792Z,13.05
2022-10-07T00:37:29.397Z,13.03
2022-10-07T00:39:57.077Z,13.03
2022-10-07T00:42:23.803Z,13.02
2022-10-07T00:44:50.323Z,13.00
2022-10-07T00:47:29.794Z,12.95
2022-10-07T00:50:17.445Z,12.92
2022-10-07T00:52:47.699Z,12.93
2022-10-07T00:55:19.862Z,12.89
2022-10-07T00:57:48.663Z,12.89
2022-10-07T01:00:15.553Z,12.86
2022-10-07T01:02:42.340Z,12.85
2022-10-07T01:05:10.154Z,12.81
2022-10-07T01:07:38.232Z,12.80
2022-10-07T01:10:06.533Z,12.78
2022-10-07T01:13:01.138Z,12.72
2022-10-07T01:15:39.726Z,12.74
2022-10-07T01:18:26.928Z,12.71
2022-10-07T01:21:04.886Z,12.72
2022-10-07T01:24:08.911Z,12.69
2022-10-07T01:27:01.863Z,12.68
2022-10-07T01:29:38.093Z,12.69
2022-10-07T01:32:21.894Z,12.66
2022-10-07T01:34:52.684Z,12.69
2022-10-07T01:37:22.882Z,12.67
2022-10-07T01:39:57.097Z,12.63
2022-10-07T01:42:26.296Z,12.63
2022-10-07T01:44:56.725Z,12.61
2022-10-07T01:47:24.996Z,12.60
2022-10-07T01:49:51.681Z,12.59
2022-10-07T01:52:30.008Z,12.55
2022-10-07T01:55:11.244Z,12.55
2022-10-07T01:57:47.401Z,12.53
2022-10-07T02:00:15.736Z,12.55
2022-10-07T02:03:00.664Z,12.50
2022-10-07T02:05:46.786Z,12.46
2022-10-07T02:08:33.858Z,12.43
2022-10-07T02:11:03.250Z,12.42
2022-10-07T02:13:43.210Z,12.36
2022-10-07T02:16:10.409Z,12.37
2022-10-07T02:18:41.637Z,12.38
2022-10-07T02:21:10.485Z,12.35
2022-10-07T02:23:40.577Z,12.34
2022-10-07T02:26:11.307Z,12.32
2022-10-07T02:28:41.940Z,12.31
2022-10-07T02:31:11.176Z,12.29
2022-10-07T02:33:41.021Z,12.27
2022-10-07T02:36:18.257Z,12.22
2022-10-07T02:38:45.245Z,12.22
2022-10-07T02:41:31.468Z,12.17
2022-10-07T02:44:20.654Z,12.12
2022-10-07T02:47:11.541Z,12.12
2022-10-07T02:49:42.021Z,12.12
2022-10-07T02:52:13.705Z,12.09
2022-10-07T02:55:17.290Z,12.05
2022-10-07T02:57:50.327Z,12.05
2022-10-07T03:00:17.494Z,12.06
2022-10-07T03:02:49.719Z,12.07
2022-10-07T03:05:21.456Z,12.06
2022-10-07T03:07:52.642Z,12.03
2022-10-07T03:10:19.295Z,12.01
2022-10-07T03:12:45.850Z,12.00
2022-10-07T03:15:12.956Z,11.98
2022-10-07T03:17:40.551Z,11.96
2022-10-07T03:20:08.782Z,11.95
2022-10-07T03:22:35.482Z,11.94
2022-10-07T03:25:02.092Z,11.93
2022-10-07T03:27:29.231Z,11.93
2022-10-07T03:29:58.494Z,11.93
2022-10-07T03:32:27.285Z,11.91
2022-10-07T03:34:54.880Z,11.90
2022-10-07T03:37:24.322Z,11.88
2022-10-07T03:39:52.734Z,11.87
2022-10-07T03:42:21.037Z,11.85
2022-10-07T03:44:49.571Z,11.85
2022-10-07T03:47:17.595Z,11.84
2022-10-07T03:49:44.922Z,11.83
2022-10-07T03:52:11.577Z,11.82
2022-10-07T03:54:38.147Z,11.82
2022-10-07T03:57:24.648Z,11.82
2022-10-07T03:59:53.726Z,11.80
2022-10-07T04:02:23.569Z,11.79
2022-10-07T04:04:53.314Z,11.78
2022-10-07T04:07:22.187Z,11.75
2022-10-07T04:09:48.972Z,11.73
2022-10-07T04:12:15.852Z,11.70
2022-10-07T04:14:42.358Z,11.68
2022-10-07T04:17:08.915Z,11.66
2022-10-07T04:19:35.578Z,11.64
2022-10-07T04:22:08.291Z,11.62
2022-10-07T04:24:35.404Z,11.60
2022-10-07T04:27:05.071Z,11.57
2022-10-07T04:29:35.426Z,11.55
2022-10-07T04:32:05.793Z,11.54
2022-10-07T04:34:32.337Z,11.52
2022-10-07T04:37:01.341Z,11.51
2022-10-07T04:39:49.043Z,11.49
2022-10-07T04:42:34.727Z,11.48
2022-10-07T04:45:01.279Z,11.46
2022-10-07T04:47:27.823Z,11.45
2022-10-07T04:49:55.129Z,11.43
2022-10-07T04:52:21.684Z,11.43
2022-10-07T04:54:48.243Z,11.43
2022-10-07T04:57:14.814Z,11.44
2022-10-07T04:59:43.001Z,11.45
2022-10-07T05:02:10.174Z,11.46
2022-10-07T05:04:37.146Z,11.46
2022-10-07T05:07:04.568Z,11.47
2022-10-07T05:09:31.116Z,11.47
2022-10-07T05:11:57.623Z,11.48
2022-10-07T05:14:24.226Z,11.48
2022-10-07T05:16:51.497Z,11.45
2022-10-07T05:19:18.161Z,11.45
2022-10-07T05:21:44.712Z,11.44
2022-10-07T05:24:11.420Z,11.41
2022-10-07T05:26:37.958Z,11.39
2022-10-07T05:29:04.548Z,11.38
2022-10-07T05:31:31.158Z,11.36
2022-10-07T05:33:57.789Z,11.34
2022-10-07T05:36:24.364Z,11.31
2022-10-07T05:38:53.759Z,11.29
2022-10-07T05:41:21.763Z,11.29
2022-10-07T05:43:48.325Z,11.27
2022-10-07T05:46:17.041Z,11.26
2022-10-07T05:48:48.937Z,11.25
2022-10-07T05:51:15.553Z,11.26
2022-10-07T05:53:43.059Z,11.27
2022-10-07T05:56:12.645Z,11.27
2022-10-07T05:58:39.298Z,11.28
2022-10-07T06:01:12.946Z,11.27
2022-10-07T06:03:40.919Z,11.29
2022-10-07T06:06:08.981Z,11.28
2022-10-07T06:08:36.203Z,11.28
2022-10-07T06:11:33.071Z,11.28
2022-10-07T06:14:00.246Z,11.32
2022-10-07T06:16:27.354Z,11.33
2022-10-07T06:18:54.848Z,11.34
2022-10-07T06:21:28.184Z,11.33
2022-10-07T06:23:56.169Z,11.37
2022-10-07T06:26:23.056Z,11.38
2022-10-07T06:28:49.726Z,11.38
2022-10-07T06:31:26.128Z,11.38
2022-10-07T06:33:52.724Z,11.40
2022-10-07T06:36:19.647Z,11.41
2022-10-07T06:38:52.299Z,11.41
2022-10-07T06:41:19.445Z,11.45
2022-10-07T06:43:46.080Z,11.47
2022-10-07T06:46:20.194Z,11.46
2022-10-07T06:48:47.041Z,11.50
2022-10-07T06:51:19.434Z,11.51
2022-10-07T06:53:50.348Z,11.54
2022-10-07T06:56:16.977Z,11.56
2022-10-07T06:58:43.584Z,11.59
2022-10-07T07:01:11.112Z,11.61
2022-10-07T07:03:37.718Z,11.66
2022-10-07T07:06:05.096Z,11.70
2022-10-07T07:08:32.328Z,11.71
2022-10-07T07:11:27.953Z,11.73
2022-10-07T07:13:54.840Z,11.81
2022-10-07T07:16:22.346Z,11.84
2022-10-07T07:18:56.902Z,11.86
2022-10-07T07:21:24.817Z,11.91
2022-10-07T07:23:51.775Z,11.95
2022-10-07T07:26:18.850Z,11.99
2022-10-07T07:29:01.291Z,12.01
2022-10-07T07:31:30.149Z,12.07
2022-10-07T07:34:00.827Z,12.11
2022-10-07T07:36:29.420Z,12.15
2022-10-07T07:39:01.229Z,12.19
2022-10-07T07:41:30.660Z,12.23
2022-10-07T07:43:59.052Z,12.27
2022-10-07T07:46:29.818Z,12.32
2022-10-07T07:48:56.456Z,12.36
2022-10-07T07:51:22.999Z,12.40
2022-10-07T07:53:50.317Z,12.46
2022-10-07T07:56:18.111Z,12.48
2022-10-07T07:58:44.809Z,12.52
2022-10-07T08:01:14.200Z,12.57
2022-10-07T08:03:43.294Z,12.61
2022-10-07T08:06:12.138Z,12.66
2022-10-07T08:08:40.114Z,12.71
2022-10-07T08:11:08.461Z,12.74
2022-10-07T08:13:36.486Z,12.80
2022-10-07T08:16:06.963Z,12.83
2022-10-07T08:18:34.037Z,12.88
2022-10-07T08:21:03.818Z,12.92
2022-10-07T08:23:30.500Z,12.97
2022-10-07T08:25:58.255Z,13.01
2022-10-07T08:28:26.300Z,13.07
2022-10-07T08:31:01.941Z,13.12
2022-10-07T08:33:36.148Z,13.19
2022-10-07T08:36:04.937Z,13.25
2022-10-07T08:38:37.754Z,13.32
2022-10-07T08:41:24.549Z,13.38
2022-10-07T08:43:52.054Z,13.51
2022-10-07T08:46:26.692Z,13.58
2022-10-07T08:48:58.339Z,13.67
2022-10-07T08:51:43.396Z,13.76
2022-10-07T08:54:14.583Z,13.87
2022-10-07T08:56:43.293Z,13.93
2022-10-07T08:59:32.046Z,13.99
2022-10-07T09:02:24.046Z,14.10
2022-10-07T09:04:55.640Z,14.21
2022-10-07T09:07:45.613Z,14.26
2022-10-07T09:10:23.771Z,14.35
2022-10-07T09:13:07.168Z,14.44
2022-10-07T09:15:52.614Z,14.52
2022-10-07T09:18:35.253Z,14.61
2022-10-07T09:21:05.899Z,14.75
2022-10-07T09:23:35.028Z,14.86
2022-10-07T09:26:01.595Z,14.96
2022-10-07T09:28:33.322Z,15.05
2022-10-07T09:31:00.914Z,15.18
2022-10-07T09:33:29.883Z,15.28
2022-10-07T09:36:05.897Z,15.39
2022-10-07T09:38:44.581Z,15.47
2022-10-07T09:41:24.274Z,15.58
2022-10-07T09:43:59.038Z,15.70
2022-10-07T09:46:42.876Z,15.75
2022-10-07T09:49:31.709Z,15.87
2022-10-07T09:52:03.874Z,15.99
2022-10-07T09:54:33.289Z,16.10
2022-10-07T09:57:03.063Z,16.21
2022-10-07T09:59:33.874Z,16.30
2022-10-07T10:02:25.336Z,16.37
2022-10-07T10:04:57.397Z,16.50
2022-10-07T10:07:47.121Z,16.57
2022-10-07T10:10:21.635Z,16.68
2022-10-07T10:12:51.816Z,16.78
2022-10-07T10:15:41.758Z,16.83
2022-10-07T10:18:41.685Z,16.95
2022-10-07T10:21:20.932Z,17.08
2022-10-07T10:23:53.276Z,17.21
2022-10-07T10:26:37.695Z,17.31
2022-10-07T10:29:07.420Z,17.43
2022-10-07T10:31:41.307Z,17.52
2022-10-07T10:34:35.305Z,17.62
2022-10-07T10:37:14.583Z,17.76
2022-10-07T10:39:52.935Z,17.88
2022-10-07T10:42:28.730Z,18.02
2022-10-07T10:45:08.174Z,18.16
2022-10-07T10:47:48.010Z,18.32
2022-10-07T10:50:32.450Z,18.49
2022-10-07T10:53:24.261Z,18.61
2022-10-07T10:56:05.996Z,18.73
2022-10-07T10:58:44.216Z,18.83
2022-10-07T11:01:30.531Z,18.92
2022-10-07T11:04:18.584Z,19.09
2022-10-07T11:06:51.137Z,19.28
2022-10-07T11:09:33.074Z,19.50
2022-10-07T11:12:04.868Z,19.85
2022-10-07T11:14:36.195Z,20.26
2022-10-07T11:17:06.810Z,20.73
2022-10-07T11:19:39.593Z,21.27
2022-10-07T11:22:12.129Z,21.79
2022-10-07T11:24:50.785Z,22.45
2022-10-07T11:27:29.435Z,23.01
2022-10-07T11:30:23.190Z,23.55
2022-10-07T11:32:55.938Z,24.04
2022-10-07T11:35:25.683Z,24.42
2022-10-07T11:37:58.708Z,24.85
2022-10-07T11:40:30.101Z,25.16
2022-10-07T11:43:05.179Z,25.45
2022-10-07T11:45:40.661Z,25.70
2022-10-07T11:48:23.233Z,25.99
2022-10-07T11:50:57.088Z,26.35
2022-10-07T11:53:28.553Z,26.74
2022-10-07T11:56:14.827Z,27.10
2022-10-07T11:58:41.419Z,27.47
2022-10-07T12:01:25.969Z,27.72
2022-10-07T12:03:54.450Z,28.01
2022-10-07T12:06:21.039Z,28.22
2022-10-07T12:08:47.619Z,28.39
2022-10-07T12:11:15.191Z,28.54
2022-10-07T12:13:50.853Z,28.67
2022-10-07T12:16:23.470Z,28.81
2022-10-07T12:19:08.218Z,28.93
2022-10-07T12:21:59.648Z,29.03
2022-10-07T12:24:28.126Z,29.14
2022-10-07T12:27:06.879Z,29.12
2022-10-07T12:30:02.361Z,29.12
2022-10-07T12:33:00.778Z,29.17
2022-10-07T12:35:30.152Z,29.24
2022-10-07T12:38:10.179Z,29.21
2022-10-07T12:40:37.852Z,29.25
2022-10-07T12:43:22.165Z,29.25
2022-10-07T12:45:48.770Z,29.31
2022-10-07T12:48:21.019Z,29.32
2022-10-07T12:50:50.355Z,29.33
2022-10-07T12:53:19.229Z,29.27
2022-10-07T12:55:52.129Z,29.17
2022-10-07T12:58:59.516Z,28.97
2022-10-07T13:01:46.711Z,28.77
2022-10-07T13:04:50.547Z,28.41
2022-10-07T13:07:35.928Z,27.91
2022-10-07T13:10:34.893Z,27.58
2022-10-07T13:13:22.925Z,27.12
2022-10-07T13:15:58.190Z,26.69
2022-10-07T13:19:04.594Z,26.21
2022-10-07T13:21:39.655Z,25.87
2022-10-07T13:24:13.834Z,25.53
2022-10-07T13:26:44.333Z,25.17
2022-10-07T13:29:24.064Z,24.87
2022-10-07T13:32:13.305Z,24.56
2022-10-07T13:34:40.547Z,24.44
2022-10-07T13:37:29.760Z,24.19
2022-10-07T13:39:58.311Z,24.15
2022-10-07T13:42:29.460Z,24.07
2022-10-07T13:45:03.030Z,24.08
2022-10-07T13:47:33.994Z,24.17
2022-10-07T13:50:02.741Z,24.27
2022-10-07T13:52:35.733Z,24.39
2022-10-07T13:55:02.323Z,24.55
2022-10-07T13:57:31.589Z,24.72
2022-10-07T13:59:59.982Z,24.97
2022-10-07T14:02:27.021Z,25.28
2022-10-07T14:05:00.761Z,25.59
2022-10-07T14:07:29.213Z,25.89
2022-10-07T14:09:58.829Z,26.11
2022-10-07T14:12:34.160Z,26.30
2022-10-07T14:15:06.852Z,26.47
2022-10-07T14:17:39.114Z,26.58
2022-10-07T14:20:19.138Z,26.78
2022-10-07T14:22:50.452Z,26.92
2022-10-07T14:25:29.501Z,27.04
2022-10-07T14:28:17.997Z,27.16
2022-10-07T14:31:29.188Z,27.36
2022-10-07T14:34:33.470Z,27.60
2022-10-07T14:37:04.630Z,27.84
2022-10-07T14:39:38.650Z,27.97
2022-10-07T14:42:10.286Z,28.10
2022-10-07T14:44:37.269Z,28.20
2022-10-07T14:47:09.374Z,28.27
2022-10-07T14:49:36.674Z,28.40
2022-10-07T14:52:06.262Z,28.55
2022-10-07T14:54:34.865Z,28.73
2022-10-07T14:57:01.559Z,28.93
2022-10-07T14:59:28.058Z,29.06
2022-10-07T15:01:54.583Z,29.14
2022-10-07T15:04:21.303Z,29.22
2022-10-07T15:06:50.848Z,29.29
2022-10-07T15:09:18.424Z,29.32
2022-10-07T15:11:44.968Z,29.28
2022-10-07T15:14:12.053Z,29.15
2022-10-07T15:16:39.005Z,28.85
2022-10-07T15:19:05.623Z,28.45
2022-10-07T15:21:32.239Z,27.96
2022-10-07T15:23:58.808Z,27.39
2022-10-07T15:26:25.414Z,26.83
2022-10-07T15:28:56.998Z,26.23
2022-10-07T15:31:32.743Z,25.66
2022-10-07T15:33:59.335Z,25.29
2022-10-07T15:36:29.131Z,24.88
2022-10-07T15:38:58.980Z,24.52
2022-10-07T15:41:40.214Z,24.12
2022-10-07T15:44:18.201Z,23.80
2022-10-07T15:46:47.737Z,23.54
2022-10-07T15:49:17.119Z,23.31
2022-10-07T15:51:46.717Z,23.10
2022-10-07T15:54:13.581Z,22.90
2022-10-07T15:56:42.218Z,22.70
2022-10-07T15:59:09.394Z,22.52
2022-10-07T16:01:36.037Z,22.34
2022-10-07T16:04:03.473Z,22.19
2022-10-07T16:06:35.748Z,22.01
2022-10-07T16:09:03.268Z,21.89
2022-10-07T16:11:36.283Z,21.76
2022-10-07T16:14:02.988Z,21.61
2022-10-07T16:16:31.474Z,21.55
2022-10-07T16:18:59.185Z,21.40
2022-10-07T16:21:27.914Z,21.27
2022-10-07T16:24:15.695Z,21.05
2022-10-07T16:26:42.960Z,20.98
2022-10-07T16:29:33.696Z,20.83
2022-10-07T16:32:00.524Z,20.72
2022-10-07T16:34:28.711Z,20.61
2022-10-07T16:36:56.403Z,20.50
2022-10-07T16:39:23.316Z,20.41
2022-10-07T16:41:54.094Z,20.30
2022-10-07T16:44:21.436Z,20.21
2022-10-07T16:46:48.541Z,20.12
2022-10-07T16:49:17.381Z,20.02
2022-10-07T16:51:44.806Z,19.94
2022-10-07T16:54:15.646Z,19.86
2022-10-07T16:56:48.124Z,19.77
2022-10-07T16:59:22.320Z,19.69
2022-10-07T17:01:57.153Z,19.57
2022-10-07T17:04:24.986Z,19.52
2022-10-07T17:06:51.910Z,19.41
2022-10-07T17:09:18.753Z,19.34
2022-10-07T17:11:46.427Z,19.26
2022-10-07T17:14:18.771Z,19.18
2022-10-07T17:16:47.532Z,19.10
2022-10-07T17:19:20.063Z,19.02
2022-10-07T17:21:48.143Z,18.96
2022-10-07T17:24:16.280Z,18.91
2022-10-07T17:26:43.844Z,18.83
2022-10-07T17:29:13.059Z,18.73
2022-10-07T17:31:42.666Z,18.66
2022-10-07T17:34:11.763Z,18.59
2022-10-07T17:36:39.407Z,18.54
2022-10-07T17:39:06.817Z,18.47
2022-10-07T17:41:35.834Z,18.39
2022-10-07T17:44:04.853Z,18.34
2022-10-07T17:46:36.550Z,18.29
2022-10-07T17:49:03.773Z,18.23
2022-10-07T17:51:32.522Z,18.18
2022-10-07T17:54:00.828Z,18.13
2022-10-07T17:56:29.457Z,18.07
2022-10-07T17:58:56.129Z,18.04
2022-10-07T18:01:27.265Z,18.00
2022-10-07T18:04:01.066Z,17.93
2022-10-07T18:06:30.405Z,17.90
2022-10-07T18:09:02.249Z,17.88
2022-10-07T18:11:48.869Z,17.83
2022-10-07T18:14:33.984Z,17.79
2022-10-07T18:17:00.680Z,17.74
2022-10-07T18:19:29.396Z,17.68
2022-10-07T18:21:56.600Z,17.64
2022-10-07T18:24:28.711Z,17.60
2022-10-07T18:26:58.455Z,17.55
2022-10-07T18:29:29.815Z,17.51
2022-10-07T18:31:56.496Z,17.51
2022-10-07T18:34:23.841Z,17.48
2022-10-07T18:36:55.249Z,17.45
2022-10-07T18:39:23.062Z,17.44
2022-10-07T18:41:49.647Z,17.40
2022-10-07T18:44:16.255Z,17.39
2022-10-07T18:46:42.772Z,17.36
2022-10-07T18:49:09.569Z,17.35
2022-10-07T18:51:36.135Z,17.32
2022-10-07T18:54:02.653Z,17.29
2022-10-07T18:56:29.178Z,17.26
2022-10-07T18:58:55.783Z,17.23
2022-10-07T19:01:25.464Z,17.17
2022-10-07T19:04:06.094Z,17.13
2022-10-07T19:06:35.682Z,17.10
2022-10-07T19:09:06.029Z,17.05
2022-10-07T19:11:32.661Z,17.02
2022-10-07T19:14:00.223Z,16.99
2022-10-07T19:16:41.884Z,16.92
2022-10-07T19:19:22.571Z,16.88
2022-10-07T19:21:51.724Z,16.87
2022-10-07T19:24:18.950Z,16.84
2022-10-07T19:26:48.812Z,16.79
2022-10-07T19:29:16.667Z,16.75
2022-10-07T19:31:45.587Z,16.73
2022-10-07T19:34:15.598Z,16.68
2022-10-07T19:36:46.810Z,16.65
2022-10-07T19:39:19.447Z,16.60
2022-10-07T19:41:46.484Z,16.59
2022-10-07T19:44:13.644Z,16.55
2022-10-07T19:46:40.321Z,16.51
2022-10-07T19:49:09.289Z,16.47
2022-10-07T19:51:37.282Z,16.42
2022-10-07T19:54:10.721Z,16.39
2022-10-07T19:56:38.565Z,16.35
2022-10-07T19:59:08.050Z,16.32
2022-10-07T20:01:37.624Z,16.28
2022-10-07T20:04:06.754Z,16.24
2022-10-07T20:06:36.523Z,16.23
2022-10-07T20:09:05.619Z,16.20
2022-10-07T20:11:32.784Z,16.19
2022-10-07T20:13:59.992Z,16.17
2022-10-07T20:16:27.522Z,16.15
2022-10-07T20:19:05.644Z,16.11
2022-10-07T20:21:36.621Z,16.12
2022-10-07T20:24:05.519Z,16.11
2022-10-07T20:26:38.337Z,16.07
2022-10-07T20:29:07.089Z,16.07
2022-10-07T20:31:36.190Z,16.04
2022-10-07T20:34:03.461Z,16.00
2022-10-07T20:36:35.721Z,15.94
2022-10-07T20:39:36.622Z,15.90
2022-10-07T20:42:24.373Z,15.86
2022-10-07T20:44:52.196Z,15.80
2022-10-07T20:47:20.297Z,15.74
2022-10-07T20:49:48.591Z,15.69
2022-10-07T20:52:17.364Z,15.63
2022-10-07T20:54:44.856Z,15.58
2022-10-07T20:57:13.032Z,15.53
2022-10-07T20:59:42.138Z,15.49
2022-10-07T21:02:14.288Z,15.43
2022-10-07T21:04:41.113Z,15.41
2022-10-07T21:07:08.391Z,15.37
2022-10-07T21:09:37.868Z,15.34
2022-10-07T21:12:07.509Z,15.30
2022-10-07T21:14:35.281Z,15.27
2022-10-07T21:17:02.238Z,15.24
2022-10-07T21:19:31.844Z,15.21
2022-10-07T21:21:58.921Z,15.19
2022-10-07T21:24:25.480Z,15.16
2022-10-07T21:26:51.983Z,15.13
2022-10-07T21:29:18.999Z,15.11
2022-10-07T21:31:45.628Z,15.07
2022-10-07T21:34:12.164Z,15.05
2022-10-07T21:36:41.247Z,15.01
2022-10-07T21:39:07.920Z,14.99
2022-10-07T21:41:37.487Z,14.96
2022-10-07T21:44:05.999Z,14.93
2022-10-07T21:46:33.858Z,14.91
2022-10-07T21:49:00.820Z,14.88
2022-10-07T21:51:27.436Z,14.84
2022-10-07T21:53:55.487Z,14.82
2022-10-07T21:56:22.007Z,14.79
2022-10-07T21:58:49.535Z,14.79
2022-10-07T22:01:18.731Z,14.75
2022-10-07T22:03:46.168Z,14.73
2022-10-07T22:06:16.047Z,14.71
2022-10-07T22:08:44.817Z,14.67
2022-10-07T22:11:17.784Z,14.64
2022-10-07T22:13:46.837Z,14.62
2022-10-07T22:16:15.772Z,14.59
2022-10-07T22:18:44.536Z,14.57
2022-10-07T22:21:12.884Z,14.54
2022-10-07T22:23:43.248Z,14.51
2022-10-07T22:26:15.041Z,14.48
2022-10-07T22:28:41.665Z,14.45
2022-10-07T22:31:09.982Z,14.42
2022-10-07T22:33:38.495Z,14.41
2022-10-07T22:36:06.622Z,14.39
2022-10-07T22:38:33.346Z,14.38
2022-10-07T22:41:04.114Z,14.35
2022-10-07T22:43:30.677Z,14.33
2022-10-07T22:45:58.731Z,14.30
2022-10-07T22:48:26.156Z,14.28
2022-10-07T22:50:53.283Z,14.27
2022-10-07T22:53:20.764Z,14.24
2022-10-07T22:55:47.291Z,14.23
2022-10-07T22:58:13.918Z,14.19
2022-10-07T23:00:40.429Z,14.17
2022-10-07T23:03:07.150Z,14.15
2022-10-07T23:05:39.830Z,14.11
2022-10-07T23:08:06.390Z,14.11
2022-10-07T23:10:32.901Z,14.09
2022-10-07T23:13:00.749Z,14.06
2022-10-07T23:15:27.285Z,14.04
2022-10-07T23:17:53.794Z,14.01
2022-10-07T23:20:20.385Z,13.97
2022-10-07T23:22:47.198Z,13.95
2022-10-07T23:25:13.963Z,13.92
2022-10-07T23:27:40.555Z,13.89
2022-10-07T23:30:08.026Z,13.86
2022-10-07T23:32:34.543Z,13.84
2022-10-07T23:35:01.041Z,13.80
2022-10-07T23:37:27.533Z,13.78
2022-10-07T23:39:54.077Z,13.75
2022-10-07T23:42:20.687Z,13.72
2022-10-07T23:44:47.202Z,13.68
2022-10-07T23:47:13.728Z,13.67
2022-10-07T23:49:40.554Z,13.66
2022-10-07T23:52:07.175Z,13.64
2022-10-07T23:54:33.724Z,13.64
2022-10-07T23:57:00.242Z,13.63
2022-10-07T23:59:26.759Z,13.63
